Elizabeth, West Virginia
Current Conditions -  °F | °C
As of 12:53 PM on Thursday 18 Dec 2014 (Local Time) from KPKB Reporting Station
Overcast Overcast  
Wind Chill: -5°   Ceiling: 2400
Heat Index: -2°   Visibility: 10mi
Dew Point: -7°   Wind: 5mph
Humidity: 67%   Direction: 250°WSW
Pressure: 30.25"   Gusts: NA
Location:  39.06°N, 81.4°W
Report Text: KPKB 181753Z 25004KT 10SM OVC024 M02/M07 A3025 RMK AO2 SLP254 T10171072 11011 21022 58011
Loading
Personal Weather Stations






























Interactive Weather Map New forecast layout! Learn more

10-Day Weather Forecast

Advertisements
Track Severe Weather on mobile